Besse sur Issole               Novembre 2003                                                                                                                                                                                                                                                                                                                                                                                                                                                                                  
  Températures (°C) Humidité Vent  (km/h) Précipitations Pression (hPa) Divers  
Date Max Min Moy de 288 relevés Moy (tx+tn)/2 Index chaleur moyen Index chaleur maxi Froid dû au vent moy  Froid dû au vent moy mini   Tx-Tn Relative maxi Relative mini Relative moy de 288 relevés Relative moy (hx+hn)/2 Point de rosée maxi Point de rosée mini Point de rosée moyen Vent  moy maxi (10mn) Vent  moyen (24h) Direction dominante Rafales (km/h) maxi Direction rafale maxi Rafales moy Total Du jour (mm) Durée (h) Intensité maxi (mm/h) Maxi Mini Moy de 288 relevés Moy (px+pn)/2 Variation Epaisseur neige Remarques diverses    
01/11/2003 18,2 7,9 12,20 13,05 12,43 18,3 11,32 5,0 10,3 100% 58% 82,5% 79,0% 14,2 4,2 9,30 24,1 6,11 W 41,8 SW 12,02 0,1 0,00 0,0 1003,1 989,8 996,1 996,5 13,3   Ciel 1/8 à 6/8, vent d'W à SW modéré, eau dans l'Issole au point de référence  
02/11/2003 17,6 4,2 10,52 10,90 10,66 17,7 8,32 1,8 13,4 90% 51% 71,1% 70,5% 8,8 2,6 5,42 20,9 10,24 W 43,5 WNW 19,22 0,0 0,00 0,0 1016,7 1003,2 1009,9 1010,0 13,5   Ciel entre 0/8 et 2/8, vent d'W à WNW modéré   
03/11/2003 19,2 2,3 10,44 10,75 10,58 19,2 9,77 2,4 16,9 99% 46% 75,8% 72,5% 11,8 1,7 5,93 17,7 6,01 W 32,2 WNW 11,48 0,2 0,08 1,2 1023,1 1016,5 1020,4 1019,8 6,6   Ciel 0/8, l'Issole de nouveau sèche au point de référence !  
04/11/2003 18,6 5,0 10,00 11,80 10,10 18,6 9,95 5,1 13,6 97% 54% 83,0% 75,5% 11,3 4,2 7,06 12,9 3,06 SSW 25,7 N 6,25 0,3 0,08 1,2 1027,8 1023,0 1025,5 1025,4 4,8   Voile 6/8 à 0/8  
05/11/2003 20,9 2,4 8,92 11,65 8,91 19,9 8,98 2,6 18,5 99% 33% 78,0% 66,0% 13,1 1,4 4,51 9,7 3,11 WSW 21,0 ESE 5,90 0,2 0,17 1,2 1028,0 1025,9 1026,9 1027,0 2,1   Ciel 0/8  
06/11/2003 19,6 0,5 7,99 10,05 8,10 19,9 7,86 0,6 19,1 98% 33% 80,3% 65,5% 10,6 -0,3 4,16 12,9 4,03 WSW 27,3 SW 7,60 0,2 0,08 1,2 1026,8 1019,0 1023,8 1022,9 7,8   Ciel 0/8  
07/11/2003 9,0 0,9 5,79 4,95 5,84 8,7 3,28 -2,1 8,1 99% 85% 92,1% 92,0% 8,6 0,3 4,65 25,7 8,94 ENE 51,5 ENE 17,96 9,7 6,58 6,0 1019,0 1016,0 1017,7 1017,5 3,0   Ciel 8/8 pluie faible pratiquement toute la journée, vent modéré d'ENE  
08/11/2003 9,6 5,6 7,54 7,60 7,58 9,3 6,19 -2,7 4,0 96% 85% 91,6% 90,5% 8,1 4,1 6,30 24,1 6,59 ENE 56,3 ENE 13,73 14,3 4,58 14,6 1023,3 1012,9 1017,9 1018,1 10,4   Ciel 8/8 à 7/8,  pluie faible le matin, vent modéré d'ENE  
09/11/2003 16,2 7,2 10,12 11,70 10,19 15,8 9,87 4,0 9,0 97% 63% 88,5% 80,0% 11,0 3,3 8,23 14,5 3,71 SW 35,4 ENE 7,63 0,2 0,08 1,2 1024,8 1021,1 1022,9 1023,0 3,7   Ciel8/8 à 7/8 qq gouttes l'AM  
10/11/2003 19,2 5,2 10,69 12,20 10,78 19,2 10,76 5,3 14,0 99% 51% 85,1% 75,0% 13,5 4,7 8,08 9,7 2,39 SW 19,3 E 4,43 0,2 0,08 1,2 1021,1 1018,4 1019,5 1019,8 2,7   Ciel 2/8 à6/8  
11/11/2003 16,3 3,6 9,73 9,95 9,80 16,0 9,72 3,7 12,7 98% 68% 86,7% 83,0% 11,1 3,1 7,56 9,7 2,31 WSW 21,0 ENE 4,72 0,0 0,00 0,0 1021,9 1019,0 1020,6 1020,5 2,9   Ciel 6/8 à 7/8 le matin, 5/8 à 8/8 l'AM  
12/11/2003 11,3 8,4 9,69 9,85 9,72 10,9 9,61 7,8 2,9 95% 75% 87,1% 85,0% 9,0 6,3 7,65 11,3 2,08 NE 25,6 ENE 4,59 0,3 0,08 1,2 1024,2 1021,2 1022,6 1022,7 3,0   Ciel 8/8 quelques goutes en fin de journée  
13/11/2003 15,2 4,6 9,24 9,90 9,32 15,1 9,28 4,6 10,6 97% 61% 88,9% 79,0% 10,1 3,7 7,45 9,7 2,07 WNW 21,0 E 4,56 0,2 0,17 1,2 1025,8 1023,1 1024,1 1024,5 2,7   Ciel 8/8 à 5/8  
14/11/2003 13,1 0,9 7,34 7,00 7,41 13,0 6,90 1,0 12,2 98% 71% 88,7% 84,5% 10,6 0,3 5,59 14,5 4,44 WSW 25,6 WNW 7,61 0,2 0,08 1,2 1025,8 1020,7 1023,6 1023,3 5,1   Brouillard au lever du jour, ciel visible ciel 1/8 à 8/8  
15/11/2003 14,5 3,5 9,29 9,00 9,37 14,3 7,86 3,6 11,0 98% 74% 87,9% 86,0% 10,4 2,8 7,40 17,7 7,32 ENE 37,0 E 15,42 0,2 0,08 1,2 1020,8 1015,1 1018,4 1018,0 5,7   Ciel 7/8 à 1/8, pluie faible dans la nuit, vent modéré d'Est  
16/11/2003 13,7 9,5 11,83 11,60 11,87 13,4 10,72 4,2 4,2 97% 85% 91,7% 91,0% 11,6 8,4 10,53 17,7 7,14 ENE 38,6 E 16,13 4,1 2,50 3,6 1017,6 1012,4 1014,8 1015,0 5,2   Ciel entre 8/8 et 7/8, petite averse dans l'AM, vent modéré d'Est  
17/11/2003 19,5 7,0 12,53 13,25 12,61 19,6 12,23 5,4 12,5 99% 65% 88,7% 82,0% 14,9 6,2 10,66 16,1 3,74 E 27,4 WNW 7,33 0,8 0,58 1,2 1023,8 1017,1 1020,2 1020,5 6,7   Ciel 6/8 à 0/8  
18/11/2003 17,2 4,8 9,81 11,00 9,88 17,3 9,88 4,9 12,4 98% 67% 92,9% 82,5% 12,4 4,3 8,71 4,8 1,67 N 16,1 N 4,02 0,3 0,17 1,2 1026,1 1023,2 1024,8 1024,7 2,9   Brouillard tenace jusque vers 11h, ciel invisible, visibilité 50 à 100 m, ciel 0/8 dés le début de l'AM  
19/11/2003 18,2 2,1 8,40 10,15 8,49 18,1 8,43 2,1 16,1 100% 67% 92,0% 83,5% 14,9 1,5 7,17 11,3 1,53 SW 20,9 ENE 3,71 0,2 0,17 1,2 1026,0 1023,2 1024,5 1024,6 2,8   Brouillard le matin, ciel visible, puis ciel 0/8 dans l'AM  
20/11/2003 18,0 4,9 10,48 11,45 10,57 17,7 10,33 4,7 13,1 99% 74% 93,0% 86,5% 14,8 4,3 9,40 14,5 3,00 NNW 32,2 E 7,05 0,3 0,25 1,2 1023,3 1018,7 1020,7 1021,0 4,6   Brouillard épais (50 à 100 m) le matin, ciel invisible, puis 5/8 à 1/8  
21/11/2003 15,1 11,6 13,43 13,35 13,47 14,6 11,95 9,1 3,5 99% 80% 89,1% 89,5% 12,8 10,7 11,66 16,1 8,68 ENE 38,6 E 19,05 2,6 0,92 3,6 1018,6 1014,9 1016,3 1016,8 3,7   Pluie faible dans la matinée, ciel 8/8, entre 7/8 et 8/8 en fin d'AM  
22/11/2003 15,5 13,6 14,11 14,55 14,13 15,1 11,60 8,7 1,9 89% 78% 84,1% 83,5% 12,1 10,5 11,50 20,9 11,58 E 41,8 ENE 25,20 0,0 0,00 0,0 1016,9 1013,7 1015,3 1015,3 3,2   Ciel entre 7/8 et 8/8, petites averses de pluie faible dans la nuit  
23/11/2003 15,7 13,2 14,21 14,45 14,23 15,4 11,15 8,7 2,5 91% 77% 83,4% 84,0% 12,1 11,0 11,44 19,3 12,94 E 41,8 ENE 27,28 0,5 0,42 1,2 1013,9 1010,3 1012,2 1012,1 3,6   Ciel entre 7/8 et 8/8  
24/11/2003 15,1 10,6 13,17 12,85 13,20 14,9 12,01 8,7 4,5 97% 82% 91,1% 89,5% 13,2 9,9 11,76 20,9 7,49 ENE 40,2 ENE 16,99 19,3 3,25 43,2 1011,6 1007,0 1009,0 1009,3 4,6   Ciel 8/8, tonnerre à partir de 8h07 TU, orage et pluies très fortes à 9h32 TU (1,5 mm/1mn,  90 mm/h)  
25/11/2003 15,7 6,9 10,43 11,30 10,49 15,9 10,46 7,0 8,8 99% 77% 94,6% 88,0% 12,9 6,6 9,63 9,7 1,42 NE 19,3 ENE 4,00 0,3 0,17 1,2 1012,7 1008,0 1011,0 1010,4 4,7   Brouillard le matint, ciel 8/8 à 2/8, l'Issole retrouve de l'eau au point de référence,  
26/11/2003 17,7 4,1 9,71 10,90 9,82 17,9 9,04 4,1 13,6 98% 42% 78,2% 70,0% 8,9 2,8 5,77 17,7 6,12 SW 32,2 NW 11,66 0,2 0,08 1,2 1008,5 1003,5 1005,2 1006,0 5,0   Ciel 6/8 à 0/8  
27/11/2003 12,4 6,1 8,26 9,25 8,33 12,2 3,17 -5,9 6,3 97% 69% 87,3% 83,0% 11,6 0,9 6,30 37,0 15,94 WNW 70,8 W 30,17 25,9 7,75 16,8 1003,7 994,9 997,9 999,3 8,8   Ciel 8/8, ligne d'averses fortes ( 0,8 mm/1mn 48 mm/h) le matin à 6h30 TU (rafale de 55 km/h de SW au passage), vent d'WNW à WNW fort dans l'AM et la nuit (70,8 km/h)  
28/11/2003 11,8 3,9 7,70 7,85 7,78 12,0 -0,33 -6,8 7,9 69% 47% 59,5% 58,0% 2,4 -1,4 0,28 49,9 25,05 NW 98,2 WNW 45,53 0,2 0,08 1,2 1007,9 997,2 1002,8 1002,6 10,7   Vent très fort dans la nuit (1h33 TU rafale maxi de 98 km/h, record nocturne du vent maxi, record mensuel, 3 ème valeur de maxi journalier de la station) Ciel entre 1/8 et 0/8,  
29/11/2003 15,6 0,6 6,28 8,10 6,40 15,7 5,70 -2,6 15,0 94% 40% 71,4% 67,0% 4,2 -1,8 1,14 17,7 3,63 W 29,0 W 7,40 0,0 0,00 0,0 1014,9 1007,8 1011,6 1011,4 7,1   Ciel entre 0/8 et 1/8  
30/11/2003 12,1 2,5 7,81 7,30 7,84 11,7 6,49 1,9 9,6 97% 79% 91,5% 88,0% 9,3 1,9 6,52 20,9 5,68 NE 43,5 NE 12,73 5,3 3,67 2,4 1015,4 1010,8 1013,6 1013,1 4,6   Ciel 8/8 , et entre 7/8 et 8/8, bruine dans l'AM, pluie faible dans la nuit suivante, vent d'E à NE modéré en soirée  
                                                                   
  Températures (°C) Humidité Vent  (km/h) Pluies Pression (hPa) Divers  
  Max Min Moy de 288 relevés Moy (tx+tn)/2 Index chaleur moyen Index chaleur maxi Froid du au vent moy  Froid du au vent moy mini   Tx-Tn Relative maxi Relative mini Relative moy de 288 relevés Relative moy (hx+hn)/2 Point de rosée maxi Point de rosée mini Point de rosée moyen Vent  moy maxi (10mn) Vent  moyen (24h) Direction dominante Rafales (km/h) maxi Direction rafale maxi Rafales moy Total Du jour (mm) Durée (h) Intensité maxi (mm/h) Maxi Mini Moy de 288 relevés Moy (px+pn)/2 Variation Epaisseur neige Remarques diverses  
Maxi 20,9 13,6 14,21 14,55 14,23 19,9 12,2 9,1 19,1 100% 85% 94,6% 92,0% 14,9 11,0 11,76 49,9 25,05 ENE 98,2 WNW 45,53 25,9 7,75 43,2 1028,0 1025,9 1026,9 1027,0 13,5 0,0    
Mini 9,0 0,5 5,79 4,95 5,84 8,7 -0,3 -6,8 1,9 69% 33% 59,5% 58,0% 2,4 -1,8 0,28 4,8 1,42   16,1   3,71       1003,1 989,8 996,1 996,5 2,1    
Moy 15,7 5,5 9,92 10,59 10,00 15,6 8,7 3,2 10,3 96,1% 64,6% 85,2% 80,3% 11,0 3,9 7,39 17,7 6,27   35,8   12,71       1019,1 1013,6 1016,3 1016,3 5,5    
Total                                             86,3 32,17             0,0  
   
Observations        
Jours Rafales > 36 km/h Rafales > 57,6 km/h Rafales > 75,6 km/h Rafales > 100,8 km/h Précipi. >=0,1 mm Précipi. >=1 mm Précipi. >=5 mm Précipi. >=10 mm Tx < 0 Tx > 25 Tx > 30 Tx > 35 Tx > 40 Tn < 0 Tn < -5 Tn < -10 Tn < -15 T moy < 0 T moy < -5 T moy > 20 T moy > 25 T moy > 30 Grêle Grésil Brouillard Brume Orage Neige        
01/11/2003 1 0 0 0 1 1 0 0 0 0 0 0 0 0 0 0 0 0 0 0 0 0 0 0 0 0 0 0    
02/11/2003 1 0 0 0 0 0 0 0 0 0 0 0 0 0 0 0 0 0 0 0 0 0 0 0 0 0 0 0    
03/11/2003 0 0 0 0 1 0 0 0 0 0 0 0 0 0 0 0 0 0 0 0 0 0 0 0 0 0 0 0    
04/11/2003 0 0 0 0 1 0 0 0 0 0 0 0 0 0 0 0 0 0 0 0 0 0 0 0 0 0 0